Decoded Metar for LFRS (NANTES in FRANCE) (IATA:NTE) | Meteo·Mobile Aviation Weather
aviador You're here:

LFRS Decoded Metar

NANTES in FRANCE
Report Time2018-09-22 19:00:00
UTC Time2018-09-22 19:20:50
Flight Rules ifr IFR
Wind240° at 14 kt
W.Decomp.*RWY 21: 11.9 kt HW 7.4 kt RCW
W.Rank240° ranks 5
Current wind is above 240° avg. (7.7)
Visibility9999 m
Phenomena:N/A
Clouds:Overcast 009 Hf
Expected CloudBase > 400 ft AGL from Temp-Dew spread
Ceiling900 ft
Temp19°C (ISA +4)
Dew Point18°C (94% RH)
AAT16.8°C
QNH1019 hPa
Density Alt650 ft
Elevation89 ft
Report Wrong Elevation
Raw Report
LFRS 221900Z AUTO 24014KT 9999 OVC009 19/18 Q1019 TEMPO 23015G25KT
2500 -RADZ=

Extra information for LFRS:More info

Metar Taf Metar & Taf Last 4 Metars F.Rules Stats Wind Profile Meteogram Temp Stats Airport Information Weather charts Add Link Nearby VenuesMetar ALERT Operation Metar Decoded Social comments